createdAt,value
2022-12-16T00:01:19.828Z,1.84
2022-12-16T00:03:51.934Z,1.86
2022-12-16T00:06:20.659Z,1.88
2022-12-16T00:08:48.542Z,1.87
2022-12-16T00:11:16.232Z,1.87
2022-12-16T00:13:44.122Z,1.85
2022-12-16T00:16:15.570Z,1.87
2022-12-16T00:18:43.563Z,1.87
2022-12-16T00:21:11.931Z,1.88
2022-12-16T00:23:41.571Z,1.91
2022-12-16T00:26:09.934Z,1.93
2022-12-16T00:28:37.616Z,1.91
2022-12-16T00:31:06.578Z,1.91
2022-12-16T00:33:36.135Z,1.91
2022-12-16T00:36:04.498Z,1.92
2022-12-16T00:38:32.273Z,1.93
2022-12-16T00:41:00.298Z,1.91
2022-12-16T00:43:28.011Z,1.99
2022-12-16T00:45:56.049Z,2.08
2022-12-16T00:48:25.426Z,2.09
2022-12-16T00:50:55.737Z,2.09
2022-12-16T00:53:26.041Z,1.99
2022-12-16T00:56:01.908Z,1.96
2022-12-16T00:58:30.028Z,1.93
2022-12-16T01:00:57.752Z,1.89
2022-12-16T01:03:26.194Z,1.94
2022-12-16T01:05:55.666Z,1.99
2022-12-16T01:08:24.327Z,1.94
2022-12-16T01:10:53.198Z,1.90
2022-12-16T01:13:25.612Z,1.87
2022-12-16T01:15:54.080Z,1.83
2022-12-16T01:18:22.440Z,1.86
2022-12-16T01:20:50.234Z,1.84
2022-12-16T01:23:20.300Z,1.82
2022-12-16T01:25:52.167Z,1.82
2022-12-16T01:28:20.219Z,1.82
2022-12-16T01:30:47.860Z,1.80
2022-12-16T01:33:15.860Z,1.76
2022-12-16T01:35:55.440Z,1.77
2022-12-16T01:38:25.680Z,1.76
2022-12-16T01:40:55.095Z,1.74
2022-12-16T01:43:27.019Z,1.75
2022-12-16T01:46:00.216Z,1.75
2022-12-16T01:48:37.020Z,1.74
2022-12-16T01:51:09.266Z,1.71
2022-12-16T01:53:40.606Z,1.69
2022-12-16T01:56:08.729Z,1.69
2022-12-16T01:58:39.569Z,1.67
2022-12-16T02:01:07.743Z,1.63
2022-12-16T02:03:37.599Z,1.55
2022-12-16T02:06:07.672Z,1.60
2022-12-16T02:08:37.888Z,1.58
2022-12-16T02:11:15.342Z,1.57
2022-12-16T02:13:59.573Z,1.57
2022-12-16T02:16:33.493Z,1.57
2022-12-16T02:19:05.764Z,1.57
2022-12-16T02:21:46.244Z,1.57
2022-12-16T02:24:42.222Z,1.57
2022-12-16T02:27:38.785Z,1.55
2022-12-16T02:30:23.231Z,1.54
2022-12-16T02:33:03.656Z,1.52
2022-12-16T02:35:36.920Z,1.52
2022-12-16T02:38:15.793Z,1.50
2022-12-16T02:40:46.868Z,1.43
2022-12-16T02:43:23.890Z,1.46
2022-12-16T02:45:51.925Z,1.46
2022-12-16T02:48:21.818Z,1.43
2022-12-16T02:50:52.026Z,1.47
2022-12-16T02:53:21.551Z,1.57
2022-12-16T02:56:00.898Z,1.53
2022-12-16T02:58:36.470Z,1.48
2022-12-16T03:01:12.998Z,1.46
2022-12-16T03:03:47.615Z,1.46
2022-12-16T03:06:18.986Z,1.45
2022-12-16T03:08:51.896Z,1.47
2022-12-16T03:11:19.863Z,1.46
2022-12-16T03:13:51.439Z,1.44
2022-12-16T03:16:23.807Z,1.45
2022-12-16T03:18:57.780Z,1.38
2022-12-16T03:21:30.162Z,1.37
2022-12-16T03:24:01.533Z,1.31
2022-12-16T03:26:35.361Z,1.29
2022-12-16T03:29:09.346Z,1.26
2022-12-16T03:31:41.477Z,1.23
2022-12-16T03:34:18.119Z,1.19
2022-12-16T03:36:51.776Z,1.10
2022-12-16T03:39:23.116Z,1.01
2022-12-16T03:41:54.370Z,0.94
2022-12-16T03:44:25.532Z,0.87
2022-12-16T03:46:53.768Z,0.87
2022-12-16T03:49:24.548Z,0.85
2022-12-16T03:51:53.540Z,0.79
2022-12-16T03:54:21.301Z,0.80
2022-12-16T03:56:48.979Z,0.81
2022-12-16T03:59:16.633Z,0.76
2022-12-16T04:01:44.702Z,0.80
2022-12-16T04:04:12.909Z,0.79
2022-12-16T04:06:41.915Z,0.81
2022-12-16T04:09:09.695Z,0.81
2022-12-16T04:11:55.271Z,0.85
2022-12-16T04:14:41.626Z,0.91
2022-12-16T04:17:31.704Z,0.97
2022-12-16T04:20:16.987Z,0.98
2022-12-16T04:23:03.396Z,1.00
2022-12-16T04:25:34.081Z,1.05
2022-12-16T04:28:01.804Z,1.06
2022-12-16T04:30:34.649Z,1.08
2022-12-16T04:33:23.334Z,1.11
2022-12-16T04:36:09.752Z,1.13
2022-12-16T04:38:56.337Z,1.28
2022-12-16T04:41:41.367Z,1.40
2022-12-16T04:44:27.156Z,1.43
2022-12-16T04:47:12.493Z,1.45
2022-12-16T04:49:57.860Z,1.26
2022-12-16T04:52:43.041Z,1.30
2022-12-16T04:55:30.523Z,1.31
2022-12-16T04:58:17.774Z,1.30
2022-12-16T05:01:06.301Z,1.33
2022-12-16T05:03:52.472Z,1.38
2022-12-16T05:06:38.193Z,1.35
2022-12-16T05:09:24.629Z,1.31
2022-12-16T05:12:12.095Z,1.28
2022-12-16T05:14:57.687Z,1.28
2022-12-16T05:17:42.669Z,1.27
2022-12-16T05:20:29.241Z,1.26
2022-12-16T05:23:14.995Z,1.23
2022-12-16T05:26:01.196Z,1.23
2022-12-16T05:28:48.501Z,1.23
2022-12-16T05:31:34.226Z,1.25
2022-12-16T05:34:19.707Z,1.25
2022-12-16T05:37:04.848Z,1.27
2022-12-16T05:39:50.180Z,1.16
2022-12-16T05:42:35.728Z,1.19
2022-12-16T05:45:23.454Z,1.16
2022-12-16T05:48:08.903Z,1.14
2022-12-16T05:50:55.755Z,1.17
2022-12-16T05:53:41.573Z,1.12
2022-12-16T05:56:38.448Z,1.10
2022-12-16T05:59:23.568Z,1.09
2022-12-16T06:02:10.516Z,1.12
2022-12-16T06:04:56.075Z,1.10
2022-12-16T06:07:41.540Z,0.99
2022-12-16T06:10:27.524Z,1.06
2022-12-16T06:13:12.741Z,1.08
2022-12-16T06:16:01.431Z,0.96
2022-12-16T06:18:50.458Z,0.76
2022-12-16T06:21:37.299Z,0.69
2022-12-16T06:24:28.528Z,0.65
2022-12-16T06:27:13.896Z,0.76
2022-12-16T06:29:59.118Z,0.81
2022-12-16T06:32:44.718Z,0.60
2022-12-16T06:35:31.207Z,0.73
2022-12-16T06:38:17.024Z,0.82
2022-12-16T06:41:01.993Z,0.98
2022-12-16T06:43:48.339Z,0.99
2022-12-16T06:46:33.960Z,0.89
2022-12-16T06:49:19.352Z,0.71
2022-12-16T06:52:06.677Z,0.61
2022-12-16T06:54:51.027Z,0.59
2022-12-16T06:57:36.779Z,0.65
2022-12-16T07:00:23.145Z,0.76
2022-12-16T07:03:08.574Z,0.68
2022-12-16T07:05:54.224Z,0.73
2022-12-16T07:08:41.251Z,0.70
2022-12-16T07:11:26.929Z,0.58
2022-12-16T07:14:12.290Z,0.54
2022-12-16T07:16:57.778Z,0.55
2022-12-16T07:19:42.985Z,0.51
2022-12-16T07:22:28.939Z,0.58
2022-12-16T07:25:15.670Z,0.63
2022-12-16T07:28:04.348Z,0.62
2022-12-16T07:30:49.553Z,0.65
2022-12-16T07:33:35.223Z,0.61
2022-12-16T07:36:21.008Z,0.69
2022-12-16T07:39:06.098Z,0.67
2022-12-16T07:41:52.691Z,0.57
2022-12-16T07:44:38.615Z,0.65
2022-12-16T07:47:24.086Z,0.66
2022-12-16T07:50:09.492Z,0.79
2022-12-16T07:52:55.375Z,0.82
2022-12-16T07:55:40.789Z,0.92
2022-12-16T07:58:28.263Z,0.85
2022-12-16T08:01:10.089Z,1.02
2022-12-16T08:03:56.290Z,1.23
2022-12-16T08:06:41.528Z,1.37
2022-12-16T08:09:32.381Z,1.20
2022-12-16T08:12:17.958Z,1.42
2022-12-16T08:15:04.895Z,1.46
2022-12-16T08:17:59.052Z,1.13
2022-12-16T08:20:49.460Z,1.34
2022-12-16T08:23:35.416Z,1.10
2022-12-16T08:26:21.395Z,1.25
2022-12-16T08:29:27.253Z,1.06
2022-12-16T08:32:13.973Z,1.22
2022-12-16T08:34:59.399Z,1.13
2022-12-16T08:37:44.930Z,1.03
2022-12-16T08:40:37.328Z,0.82
2022-12-16T08:43:23.121Z,0.46
2022-12-16T08:46:11.963Z,0.26
2022-12-16T08:48:59.255Z,0.24
2022-12-16T08:51:44.936Z,0.63
2022-12-16T08:54:30.261Z,0.56
2022-12-16T08:57:15.570Z,0.61
2022-12-16T09:00:00.771Z,0.63
2022-12-16T09:02:46.543Z,0.98
2022-12-16T09:05:33.695Z,1.20
2022-12-16T09:08:20.121Z,1.09
2022-12-16T09:11:05.403Z,0.96
2022-12-16T09:13:50.556Z,0.95
2022-12-16T09:16:37.195Z,1.10
2022-12-16T09:19:22.598Z,1.33
2022-12-16T09:22:09.144Z,1.29
2022-12-16T09:24:54.455Z,1.46
2022-12-16T09:27:41.205Z,1.45
2022-12-16T09:30:28.127Z,1.51
2022-12-16T09:33:13.626Z,0.46
2022-12-16T09:36:00.224Z,0.89
2022-12-16T09:38:46.651Z,1.12
2022-12-16T09:41:47.016Z,1.43
2022-12-16T09:44:45.557Z,1.11
2022-12-16T09:47:42.627Z,1.47
2022-12-16T09:50:37.532Z,1.54
2022-12-16T09:53:25.167Z,1.74
2022-12-16T09:56:12.263Z,1.61
2022-12-16T09:59:05.220Z,1.48
2022-12-16T10:01:54.697Z,1.41
2022-12-16T10:04:51.954Z,1.32
2022-12-16T10:07:40.372Z,1.39
2022-12-16T10:10:39.101Z,1.40
2022-12-16T10:13:36.104Z,1.33
2022-12-16T10:16:31.771Z,1.09
2022-12-16T10:19:26.411Z,0.97
2022-12-16T10:22:19.726Z,0.73
2022-12-16T10:25:29.421Z,0.53
2022-12-16T10:28:24.681Z,0.65
2022-12-16T10:31:12.043Z,0.59
2022-12-16T10:34:09.057Z,0.80
2022-12-16T10:36:56.097Z,0.84
2022-12-16T10:39:59.444Z,0.91
2022-12-16T10:42:48.758Z,0.76
2022-12-16T10:45:39.945Z,0.82
2022-12-16T10:48:27.601Z,1.11
2022-12-16T10:51:13.209Z,0.44
2022-12-16T10:53:58.614Z,0.60
2022-12-16T10:57:06.530Z,0.35
2022-12-16T10:59:54.487Z,0.64
2022-12-16T11:02:43.085Z,1.04
2022-12-16T11:05:49.216Z,1.29
2022-12-16T11:08:44.171Z,1.75
2022-12-16T11:11:40.075Z,1.75
2022-12-16T11:14:38.387Z,1.75
2022-12-16T11:17:32.385Z,2.10
2022-12-16T11:20:34.754Z,2.21
2022-12-16T11:23:32.398Z,2.33
2022-12-16T11:26:35.831Z,2.69
2022-12-16T11:29:25.963Z,2.87
2022-12-16T11:32:16.902Z,3.13
2022-12-16T11:35:08.232Z,3.46
2022-12-16T11:37:56.897Z,3.71
2022-12-16T11:40:44.738Z,3.87
2022-12-16T11:43:33.777Z,4.00
2022-12-16T11:46:22.835Z,4.16
2022-12-16T11:49:13.428Z,4.30
2022-12-16T11:52:28.037Z,4.44
2022-12-16T11:55:15.555Z,4.55
2022-12-16T11:58:09.062Z,4.50
2022-12-16T12:01:07.719Z,4.47
2022-12-16T12:04:01.712Z,4.37
2022-12-16T12:06:58.116Z,4.20
2022-12-16T12:09:46.083Z,4.08
2022-12-16T12:12:41.767Z,3.80
2022-12-16T12:15:41.978Z,3.41
2022-12-16T12:18:35.933Z,3.52
2022-12-16T12:21:27.650Z,3.30
2022-12-16T12:24:22.091Z,3.09
2022-12-16T12:27:15.922Z,3.14
2022-12-16T12:30:16.593Z,3.09
2022-12-16T12:33:14.241Z,3.14
2022-12-16T12:36:10.978Z,3.23
2022-12-16T12:39:05.855Z,3.40
2022-12-16T12:42:01.512Z,3.41
2022-12-16T12:45:00.591Z,3.42
2022-12-16T12:47:49.159Z,3.51
2022-12-16T12:50:46.789Z,3.49
2022-12-16T12:53:45.024Z,3.51
2022-12-16T12:56:41.729Z,3.50
2022-12-16T12:59:33.827Z,3.40
2022-12-16T13:02:23.577Z,3.39
2022-12-16T13:05:10.200Z,3.20
2022-12-16T13:07:57.231Z,3.29
2022-12-16T13:10:52.232Z,3.23
2022-12-16T13:13:49.100Z,3.19
2022-12-16T13:17:07.911Z,3.03
2022-12-16T13:19:59.926Z,3.13
2022-12-16T13:22:48.214Z,3.14
2022-12-16T13:25:56.692Z,3.07
2022-12-16T13:28:49.421Z,3.17
2022-12-16T13:31:35.500Z,3.08
2022-12-16T13:34:26.049Z,2.92
2022-12-16T13:37:20.784Z,2.77
2022-12-16T13:40:22.361Z,2.73
2022-12-16T13:43:13.846Z,2.39
2022-12-16T13:46:01.983Z,2.36
2022-12-16T13:48:56.945Z,2.06
2022-12-16T13:52:25.719Z,1.91
2022-12-16T13:55:27.347Z,0.82
2022-12-16T13:58:22.203Z,0.63
2022-12-16T14:01:16.683Z,0.64
2022-12-16T14:04:05.651Z,0.71
2022-12-16T14:06:53.658Z,0.69
2022-12-16T14:09:48.671Z,0.36
2022-12-16T14:12:52.981Z,0.14
2022-12-16T14:15:47.791Z,0.22
2022-12-16T14:18:44.660Z,0.18
2022-12-16T14:21:35.347Z,0.28
2022-12-16T14:24:29.647Z,0.26
2022-12-16T14:27:15.471Z,0.12
2022-12-16T14:30:02.636Z,0.14
2022-12-16T14:32:51.212Z,-0.03
2022-12-16T14:35:38.845Z,-0.22
2022-12-16T14:38:42.153Z,-0.12
2022-12-16T14:41:34.488Z,-0.29
2022-12-16T14:44:21.974Z,-0.08
2022-12-16T14:47:09.052Z,-0.29
2022-12-16T14:50:09.195Z,-0.43
2022-12-16T14:52:54.752Z,-0.11
2022-12-16T14:55:47.520Z,-0.09
2022-12-16T14:58:35.074Z,-0.16
2022-12-16T15:01:24.441Z,-0.16
2022-12-16T15:04:12.390Z,-0.23
2022-12-16T15:07:02.940Z,-0.25
2022-12-16T15:09:52.974Z,-0.13
2022-12-16T15:12:44.510Z,-0.18
2022-12-16T15:15:34.931Z,-0.33
2022-12-16T15:18:21.682Z,-0.42
2022-12-16T15:21:10.711Z,-0.59
2022-12-16T15:24:00.596Z,-0.51
2022-12-16T15:26:48.854Z,-0.36
2022-12-16T15:29:47.358Z,-0.37
2022-12-16T15:32:48.034Z,-0.39
2022-12-16T15:35:43.877Z,-0.54
2022-12-16T15:38:31.043Z,-0.52
2022-12-16T15:41:17.968Z,-0.51
2022-12-16T15:44:16.810Z,-0.69
2022-12-16T15:47:06.907Z,-0.58
2022-12-16T15:49:57.975Z,-0.90
2022-12-16T15:52:54.676Z,-0.93
2022-12-16T15:55:45.814Z,-0.82
2022-12-16T15:58:37.906Z,-0.75
2022-12-16T16:01:25.193Z,-0.82
2022-12-16T16:04:13.332Z,-0.87
2022-12-16T16:07:15.245Z,-0.88
2022-12-16T16:10:01.184Z,-1.02
2022-12-16T16:12:46.642Z,-0.94
2022-12-16T16:15:34.193Z,-0.91
2022-12-16T16:18:21.634Z,-0.97
2022-12-16T16:21:08.193Z,-0.84
2022-12-16T16:23:54.272Z,-0.75
2022-12-16T16:26:50.246Z,-0.75
2022-12-16T16:29:47.216Z,-0.79
2022-12-16T16:32:34.658Z,-0.86
2022-12-16T16:35:20.180Z,-0.83
2022-12-16T16:38:06.093Z,-0.69
2022-12-16T16:40:54.251Z,-0.70
2022-12-16T16:43:40.037Z,-0.84
2022-12-16T16:46:46.322Z,-0.66
2022-12-16T16:49:36.031Z,-0.81
2022-12-16T16:52:21.450Z,-0.64
2022-12-16T16:55:07.339Z,-0.59
2022-12-16T16:57:56.243Z,-0.55
2022-12-16T17:00:42.032Z,-0.63
2022-12-16T17:03:27.969Z,-0.59
2022-12-16T17:06:15.556Z,-0.69
2022-12-16T17:09:00.873Z,-0.67
2022-12-16T17:11:47.675Z,-0.53
2022-12-16T17:14:35.566Z,-0.65
2022-12-16T17:17:21.773Z,-0.68
2022-12-16T17:20:07.947Z,-0.65
2022-12-16T17:22:54.607Z,-0.64
2022-12-16T17:25:40.610Z,-0.64
2022-12-16T17:28:26.424Z,-0.57
2022-12-16T17:31:11.929Z,-0.48
2022-12-16T17:33:57.494Z,-0.68
2022-12-16T17:36:42.840Z,-0.56
2022-12-16T17:39:30.128Z,-0.67
2022-12-16T17:42:16.033Z,-0.56
2022-12-16T17:45:01.137Z,-0.56
2022-12-16T17:47:47.472Z,-0.54
2022-12-16T17:50:32.903Z,-0.65
2022-12-16T17:53:18.607Z,-0.54
2022-12-16T17:56:05.178Z,-0.54
2022-12-16T17:58:54.107Z,-0.64
2022-12-16T18:01:40.343Z,-0.66
2022-12-16T18:04:26.200Z,-0.87
2022-12-16T18:07:11.676Z,-0.91
2022-12-16T18:09:57.196Z,-0.96
2022-12-16T18:12:44.925Z,-0.78
2022-12-16T18:15:30.033Z,-0.97
2022-12-16T18:18:15.861Z,-0.73
2022-12-16T18:21:01.343Z,-1.05
2022-12-16T18:23:48.056Z,-0.79
2022-12-16T18:26:33.745Z,-0.71
2022-12-16T18:29:20.180Z,-0.62
2022-12-16T18:32:06.521Z,-0.60
2022-12-16T18:34:52.383Z,-0.84
2022-12-16T18:37:42.081Z,-0.72
2022-12-16T18:40:28.915Z,-0.72
2022-12-16T18:43:17.216Z,-0.67
2022-12-16T18:46:10.360Z,-0.62
2022-12-16T18:49:04.831Z,-0.61
2022-12-16T18:51:50.622Z,-0.59
2022-12-16T18:54:36.365Z,-0.54
2022-12-16T18:57:21.855Z,-0.56
2022-12-16T19:00:07.836Z,-0.48
2022-12-16T19:02:55.525Z,-0.44
2022-12-16T19:05:41.635Z,-0.53
2022-12-16T19:08:27.497Z,-0.48
2022-12-16T19:11:15.806Z,-0.40
2022-12-16T19:14:02.076Z,-0.35
2022-12-16T19:16:48.066Z,-0.33
2022-12-16T19:19:34.767Z,-0.31
2022-12-16T19:22:20.985Z,-0.42
2022-12-16T19:25:06.268Z,-0.58
2022-12-16T19:27:52.731Z,-0.40
2022-12-16T19:30:50.220Z,-0.61
2022-12-16T19:33:35.692Z,-0.60
2022-12-16T19:36:22.686Z,-0.61
2022-12-16T19:39:08.805Z,-0.98
2022-12-16T19:41:56.212Z,-0.77
2022-12-16T19:44:41.918Z,-0.88
2022-12-16T19:47:27.537Z,-1.03
2022-12-16T19:50:12.922Z,-1.00
2022-12-16T19:53:00.141Z,-0.83
2022-12-16T19:55:45.508Z,-0.86
2022-12-16T19:58:32.082Z,-1.09
2022-12-16T20:01:17.462Z,-1.10
2022-12-16T20:04:03.309Z,-1.11
2022-12-16T20:06:49.440Z,-1.16
2022-12-16T20:09:36.308Z,-1.23
2022-12-16T20:12:21.907Z,-1.18
2022-12-16T20:15:07.051Z,-1.36
2022-12-16T20:17:52.467Z,-1.21
2022-12-16T20:20:41.644Z,-1.51
2022-12-16T20:23:27.514Z,-1.13
2022-12-16T20:26:15.689Z,-1.18
2022-12-16T20:29:02.359Z,-1.13
2022-12-16T20:31:48.135Z,-1.08
2022-12-16T20:34:33.741Z,-0.89
2022-12-16T20:37:18.965Z,-0.85
2022-12-16T20:40:04.708Z,-0.75
2022-12-16T20:42:51.412Z,-0.72
2022-12-16T20:45:38.983Z,-0.84
2022-12-16T20:48:24.451Z,-0.79
2022-12-16T20:51:13.628Z,-0.78
2022-12-16T20:53:59.744Z,-0.73
2022-12-16T20:56:45.076Z,-0.81
2022-12-16T20:59:32.105Z,-0.98
2022-12-16T21:02:27.928Z,-0.94
2022-12-16T21:05:17.367Z,-0.95
2022-12-16T21:08:02.944Z,-0.80
2022-12-16T21:10:49.556Z,-0.78
2022-12-16T21:13:36.483Z,-0.73
2022-12-16T21:16:25.305Z,-0.77
2022-12-16T21:19:11.472Z,-0.79
2022-12-16T21:21:56.808Z,-0.78
2022-12-16T21:24:43.050Z,-0.92
2022-12-16T21:27:28.692Z,-0.87
2022-12-16T21:30:14.158Z,-0.88
2022-12-16T21:33:00.979Z,-0.82
2022-12-16T21:35:47.014Z,-0.81
2022-12-16T21:38:32.760Z,-0.87
2022-12-16T21:41:17.984Z,-0.83
2022-12-16T21:44:03.273Z,-0.91
2022-12-16T21:46:48.802Z,-0.90
2022-12-16T21:49:35.923Z,-0.92
2022-12-16T21:52:20.964Z,-1.00
2022-12-16T21:55:06.859Z,-1.05
2022-12-16T21:57:53.332Z,-1.27
2022-12-16T22:00:40.702Z,-1.06
2022-12-16T22:03:26.357Z,-1.28
2022-12-16T22:06:17.428Z,-1.47
2022-12-16T22:09:03.030Z,-1.39
2022-12-16T22:11:48.538Z,-1.41
2022-12-16T22:14:34.600Z,-1.44
2022-12-16T22:17:19.922Z,-1.10
2022-12-16T22:20:05.648Z,-1.06
2022-12-16T22:22:52.511Z,-1.17
2022-12-16T22:25:38.011Z,-1.13
2022-12-16T22:28:24.959Z,-1.19
2022-12-16T22:31:16.150Z,-1.21
2022-12-16T22:34:01.433Z,-1.44
2022-12-16T22:36:47.082Z,-1.41
2022-12-16T22:39:33.600Z,-1.47
2022-12-16T22:42:18.898Z,-1.62
2022-12-16T22:45:04.120Z,-1.96
2022-12-16T22:47:49.703Z,-1.98
2022-12-16T22:50:35.546Z,-1.99
2022-12-16T22:53:21.220Z,-2.05
2022-12-16T22:56:10.862Z,-1.86
2022-12-16T22:58:55.244Z,-2.01
2022-12-16T23:01:41.891Z,-1.83
2022-12-16T23:04:27.566Z,-1.94
2022-12-16T23:07:13.761Z,-1.85
2022-12-16T23:09:59.514Z,-1.85
2022-12-16T23:12:46.199Z,-1.97
2022-12-16T23:15:32.435Z,-2.28
2022-12-16T23:18:17.784Z,-2.14
2022-12-16T23:21:05.440Z,-2.16
2022-12-16T23:23:50.612Z,-2.09
2022-12-16T23:26:37.332Z,-2.02
2022-12-16T23:29:39.180Z,-2.13
2022-12-16T23:32:24.347Z,-2.07
2022-12-16T23:35:09.809Z,-2.16
2022-12-16T23:37:55.003Z,-2.21
2022-12-16T23:40:42.237Z,-2.04
2022-12-16T23:43:27.454Z,-2.03
2022-12-16T23:46:14.575Z,-2.04
2022-12-16T23:48:59.954Z,-1.99
2022-12-16T23:51:45.199Z,-2.09
2022-12-16T23:54:30.267Z,-2.16
2022-12-16T23:57:15.575Z,-2.23
